Terminal Aerodrome Forecast
Issued by NWS

Home | Current Version | Previous Version | Text Only | Print | Product List | Glossary On
Versions: 1 2 3 4 5 6 7 8 9 10 11 12 13 14 15 16 17
000
FTUS43 KGRR 030500
TAFLAN
TAF
KLAN 030540Z 0306/0406 18006KT P6SM OVC150
     FM031400 15012KT 2SM -SN BR OVC015
     FM031800 17015G23KT 1SM -SN BR OVC009
     FM032100 21017G25KT 3/4SM -SN BR OVC005=

USA.gov is the U.S. government's official web portal to all federal, state and local government web resources and services.